sensor_id;sensor_type;location;lat;lon;timestamp;temperature;humidity
9215;DHT22;4642;51.364;6.788;2022-10-16T00:01:11;13.00;99.90
9215;DHT22;4642;51.364;6.788;2022-10-16T00:03:38;13.00;99.90
9215;DHT22;4642;51.364;6.788;2022-10-16T00:06:04;13.00;99.90
9215;DHT22;4642;51.364;6.788;2022-10-16T00:08:31;13.00;99.90
9215;DHT22;4642;51.364;6.788;2022-10-16T00:11:08;12.90;99.90
9215;DHT22;4642;51.364;6.788;2022-10-16T00:13:36;12.90;99.90
9215;DHT22;4642;51.364;6.788;2022-10-16T00:16:02;12.90;99.90
9215;DHT22;4642;51.364;6.788;2022-10-16T00:18:29;12.90;99.90
9215;DHT22;4642;51.364;6.788;2022-10-16T00:20:56;12.90;99.90
9215;DHT22;4642;51.364;6.788;2022-10-16T00:23:26;12.90;99.90
9215;DHT22;4642;51.364;6.788;2022-10-16T00:25:57;12.80;99.90
9215;DHT22;4642;51.364;6.788;2022-10-16T00:28:22;12.80;99.90
9215;DHT22;4642;51.364;6.788;2022-10-16T00:30:48;12.80;99.90
9215;DHT22;4642;51.364;6.788;2022-10-16T00:33:13;12.80;99.90
9215;DHT22;4642;51.364;6.788;2022-10-16T00:35:39;12.80;99.90
9215;DHT22;4642;51.364;6.788;2022-10-16T00:38:04;12.80;99.90
9215;DHT22;4642;51.364;6.788;2022-10-16T00:40:30;12.70;99.90
9215;DHT22;4642;51.364;6.788;2022-10-16T00:42:57;12.70;99.90
9215;DHT22;4642;51.364;6.788;2022-10-16T00:45:22;12.70;99.90
9215;DHT22;4642;51.364;6.788;2022-10-16T00:47:48;12.70;99.90
9215;DHT22;4642;51.364;6.788;2022-10-16T00:50:29;12.70;99.90
9215;DHT22;4642;51.364;6.788;2022-10-16T00:52:56;12.70;99.90
9215;DHT22;4642;51.364;6.788;2022-10-16T00:55:23;12.70;99.90
9215;DHT22;4642;51.364;6.788;2022-10-16T00:57:51;12.70;99.90
9215;DHT22;4642;51.364;6.788;2022-10-16T01:00:20;12.60;99.90
9215;DHT22;4642;51.364;6.788;2022-10-16T01:02:56;12.60;99.90
9215;DHT22;4642;51.364;6.788;2022-10-16T01:05:23;12.60;99.90
9215;DHT22;4642;51.364;6.788;2022-10-16T01:08:08;12.60;99.90
9215;DHT22;4642;51.364;6.788;2022-10-16T01:10:40;12.60;99.90
9215;DHT22;4642;51.364;6.788;2022-10-16T01:13:13;12.60;99.90
9215;DHT22;4642;51.364;6.788;2022-10-16T01:15:48;12.50;99.90
9215;DHT22;4642;51.364;6.788;2022-10-16T01:18:34;12.50;99.90
9215;DHT22;4642;51.364;6.788;2022-10-16T01:21:07;12.50;99.90
9215;DHT22;4642;51.364;6.788;2022-10-16T01:23:38;12.50;99.90
9215;DHT22;4642;51.364;6.788;2022-10-16T01:26:23;12.40;99.90
9215;DHT22;4642;51.364;6.788;2022-10-16T01:28:57;12.40;99.90
9215;DHT22;4642;51.364;6.788;2022-10-16T01:31:29;12.40;99.90
9215;DHT22;4642;51.364;6.788;2022-10-16T01:34:04;12.40;99.90
9215;DHT22;4642;51.364;6.788;2022-10-16T01:36:52;12.40;99.90
9215;DHT22;4642;51.364;6.788;2022-10-16T01:39:22;12.40;99.90
9215;DHT22;4642;51.364;6.788;2022-10-16T01:42:09;12.50;99.90
9215;DHT22;4642;51.364;6.788;2022-10-16T01:44:37;12.50;99.90
9215;DHT22;4642;51.364;6.788;2022-10-16T01:47:04;12.50;99.90
9215;DHT22;4642;51.364;6.788;2022-10-16T01:49:33;12.50;99.90
9215;DHT22;4642;51.364;6.788;2022-10-16T01:52:02;12.50;99.90
9215;DHT22;4642;51.364;6.788;2022-10-16T01:54:31;12.50;99.90
9215;DHT22;4642;51.364;6.788;2022-10-16T01:56:59;12.50;99.90
9215;DHT22;4642;51.364;6.788;2022-10-16T01:59:26;12.50;99.90
9215;DHT22;4642;51.364;6.788;2022-10-16T02:02:00;12.50;99.90
9215;DHT22;4642;51.364;6.788;2022-10-16T02:04:40;12.50;99.90
9215;DHT22;4642;51.364;6.788;2022-10-16T02:07:08;12.50;99.90
9215;DHT22;4642;51.364;6.788;2022-10-16T02:09:34;12.50;99.90
9215;DHT22;4642;51.364;6.788;2022-10-16T02:12:06;12.50;99.90
9215;DHT22;4642;51.364;6.788;2022-10-16T02:14:34;12.50;99.90
9215;DHT22;4642;51.364;6.788;2022-10-16T02:17:13;12.50;99.90
9215;DHT22;4642;51.364;6.788;2022-10-16T02:19:39;12.50;99.90
9215;DHT22;4642;51.364;6.788;2022-10-16T02:22:08;12.40;99.90
9215;DHT22;4642;51.364;6.788;2022-10-16T02:24:56;12.50;99.90
9215;DHT22;4642;51.364;6.788;2022-10-16T02:28:04;12.40;99.90
9215;DHT22;4642;51.364;6.788;2022-10-16T02:30:49;12.50;99.90
9215;DHT22;4642;51.364;6.788;2022-10-16T02:33:17;12.50;99.90
9215;DHT22;4642;51.364;6.788;2022-10-16T02:35:45;12.50;99.90
9215;DHT22;4642;51.364;6.788;2022-10-16T02:38:12;12.50;99.90
9215;DHT22;4642;51.364;6.788;2022-10-16T02:40:40;12.50;99.90
9215;DHT22;4642;51.364;6.788;2022-10-16T02:43:06;12.60;99.90
9215;DHT22;4642;51.364;6.788;2022-10-16T02:45:32;12.50;99.90
9215;DHT22;4642;51.364;6.788;2022-10-16T02:47:58;12.60;99.90
9215;DHT22;4642;51.364;6.788;2022-10-16T02:50:24;12.60;99.90
9215;DHT22;4642;51.364;6.788;2022-10-16T02:52:50;12.50;99.90
9215;DHT22;4642;51.364;6.788;2022-10-16T02:55:16;12.60;99.90
9215;DHT22;4642;51.364;6.788;2022-10-16T02:57:42;12.60;99.90
9215;DHT22;4642;51.364;6.788;2022-10-16T03:00:09;12.60;99.90
9215;DHT22;4642;51.364;6.788;2022-10-16T03:02:36;12.60;99.90
9215;DHT22;4642;51.364;6.788;2022-10-16T03:05:02;12.60;99.90
9215;DHT22;4642;51.364;6.788;2022-10-16T03:07:28;12.70;99.90
9215;DHT22;4642;51.364;6.788;2022-10-16T03:09:54;12.70;99.90
9215;DHT22;4642;51.364;6.788;2022-10-16T03:12:20;12.70;99.90
9215;DHT22;4642;51.364;6.788;2022-10-16T03:14:46;12.70;99.90
9215;DHT22;4642;51.364;6.788;2022-10-16T03:17:12;12.70;99.90
9215;DHT22;4642;51.364;6.788;2022-10-16T03:19:38;12.80;99.90
9215;DHT22;4642;51.364;6.788;2022-10-16T03:22:04;12.70;99.90
9215;DHT22;4642;51.364;6.788;2022-10-16T03:24:29;12.70;99.90
9215;DHT22;4642;51.364;6.788;2022-10-16T03:26:55;12.80;99.90
9215;DHT22;4642;51.364;6.788;2022-10-16T03:29:20;12.70;99.90
9215;DHT22;4642;51.364;6.788;2022-10-16T03:31:46;12.70;99.90
9215;DHT22;4642;51.364;6.788;2022-10-16T03:34:13;12.70;99.90
9215;DHT22;4642;51.364;6.788;2022-10-16T03:36:39;12.60;99.90
9215;DHT22;4642;51.364;6.788;2022-10-16T03:39:04;12.70;99.90
9215;DHT22;4642;51.364;6.788;2022-10-16T03:41:30;12.60;99.90
9215;DHT22;4642;51.364;6.788;2022-10-16T03:43:56;12.60;99.90
9215;DHT22;4642;51.364;6.788;2022-10-16T03:46:21;12.60;99.90
9215;DHT22;4642;51.364;6.788;2022-10-16T03:48:47;12.60;99.90
9215;DHT22;4642;51.364;6.788;2022-10-16T03:51:12;12.60;99.90
9215;DHT22;4642;51.364;6.788;2022-10-16T03:53:38;12.60;99.90
9215;DHT22;4642;51.364;6.788;2022-10-16T03:56:04;12.60;99.90
9215;DHT22;4642;51.364;6.788;2022-10-16T03:58:29;12.50;99.90
9215;DHT22;4642;51.364;6.788;2022-10-16T04:00:55;12.50;99.90
9215;DHT22;4642;51.364;6.788;2022-10-16T04:03:20;12.50;99.90
9215;DHT22;4642;51.364;6.788;2022-10-16T04:05:46;12.50;99.90
9215;DHT22;4642;51.364;6.788;2022-10-16T04:08:12;12.40;99.90
9215;DHT22;4642;51.364;6.788;2022-10-16T04:10:37;12.40;99.90
9215;DHT22;4642;51.364;6.788;2022-10-16T04:13:03;12.50;99.90
9215;DHT22;4642;51.364;6.788;2022-10-16T04:15:28;12.30;99.90
9215;DHT22;4642;51.364;6.788;2022-10-16T04:17:54;12.30;99.90
9215;DHT22;4642;51.364;6.788;2022-10-16T04:20:20;12.20;99.90
9215;DHT22;4642;51.364;6.788;2022-10-16T04:22:45;12.20;99.90
9215;DHT22;4642;51.364;6.788;2022-10-16T04:25:11;12.20;99.90
9215;DHT22;4642;51.364;6.788;2022-10-16T04:27:37;12.20;99.90
9215;DHT22;4642;51.364;6.788;2022-10-16T04:30:03;12.20;99.90
9215;DHT22;4642;51.364;6.788;2022-10-16T04:32:30;12.20;99.90
9215;DHT22;4642;51.364;6.788;2022-10-16T04:34:56;12.10;99.90
9215;DHT22;4642;51.364;6.788;2022-10-16T04:37:25;12.10;99.90
9215;DHT22;4642;51.364;6.788;2022-10-16T04:39:52;12.10;99.90
9215;DHT22;4642;51.364;6.788;2022-10-16T04:42:18;12.10;99.90
9215;DHT22;4642;51.364;6.788;2022-10-16T04:44:44;12.10;99.90
9215;DHT22;4642;51.364;6.788;2022-10-16T04:47:09;12.10;99.90
9215;DHT22;4642;51.364;6.788;2022-10-16T04:49:35;12.10;99.90
9215;DHT22;4642;51.364;6.788;2022-10-16T04:52:00;12.10;99.90
9215;DHT22;4642;51.364;6.788;2022-10-16T04:54:26;12.10;99.90
9215;DHT22;4642;51.364;6.788;2022-10-16T04:56:51;12.10;99.90
9215;DHT22;4642;51.364;6.788;2022-10-16T04:59:18;12.00;99.90
9215;DHT22;4642;51.364;6.788;2022-10-16T05:01:44;12.10;99.90
9215;DHT22;4642;51.364;6.788;2022-10-16T05:04:10;12.10;99.90
9215;DHT22;4642;51.364;6.788;2022-10-16T05:06:37;12.10;99.90
9215;DHT22;4642;51.364;6.788;2022-10-16T05:09:04;12.10;99.90
9215;DHT22;4642;51.364;6.788;2022-10-16T05:11:30;12.10;99.90
9215;DHT22;4642;51.364;6.788;2022-10-16T05:13:55;12.10;99.90
9215;DHT22;4642;51.364;6.788;2022-10-16T05:16:21;12.10;99.90
9215;DHT22;4642;51.364;6.788;2022-10-16T05:18:47;12.10;99.90
9215;DHT22;4642;51.364;6.788;2022-10-16T05:21:12;12.00;99.90
9215;DHT22;4642;51.364;6.788;2022-10-16T05:23:38;12.00;99.90
9215;DHT22;4642;51.364;6.788;2022-10-16T05:26:03;12.00;99.90
9215;DHT22;4642;51.364;6.788;2022-10-16T05:28:29;12.10;99.90
9215;DHT22;4642;51.364;6.788;2022-10-16T05:30:56;12.00;99.90
9215;DHT22;4642;51.364;6.788;2022-10-16T05:33:23;12.00;99.90
9215;DHT22;4642;51.364;6.788;2022-10-16T05:35:50;12.00;99.90
9215;DHT22;4642;51.364;6.788;2022-10-16T05:38:16;12.00;99.90
9215;DHT22;4642;51.364;6.788;2022-10-16T05:40:42;12.00;99.90
9215;DHT22;4642;51.364;6.788;2022-10-16T05:43:07;12.00;99.90
9215;DHT22;4642;51.364;6.788;2022-10-16T05:45:33;12.00;99.90
9215;DHT22;4642;51.364;6.788;2022-10-16T05:48:00;12.00;99.90
9215;DHT22;4642;51.364;6.788;2022-10-16T05:50:26;12.20;99.90
9215;DHT22;4642;51.364;6.788;2022-10-16T05:52:52;12.00;99.90
9215;DHT22;4642;51.364;6.788;2022-10-16T05:55:18;12.00;99.90
9215;DHT22;4642;51.364;6.788;2022-10-16T05:57:43;11.90;99.90
9215;DHT22;4642;51.364;6.788;2022-10-16T06:00:10;12.00;99.90
9215;DHT22;4642;51.364;6.788;2022-10-16T06:02:35;12.00;99.90
9215;DHT22;4642;51.364;6.788;2022-10-16T06:05:01;12.00;99.90
9215;DHT22;4642;51.364;6.788;2022-10-16T06:07:26;12.00;99.90
9215;DHT22;4642;51.364;6.788;2022-10-16T06:09:52;12.00;99.90
9215;DHT22;4642;51.364;6.788;2022-10-16T06:12:18;12.00;99.90
9215;DHT22;4642;51.364;6.788;2022-10-16T06:14:45;12.00;99.90
9215;DHT22;4642;51.364;6.788;2022-10-16T06:17:13;12.00;99.90
9215;DHT22;4642;51.364;6.788;2022-10-16T06:19:39;12.00;99.90
9215;DHT22;4642;51.364;6.788;2022-10-16T06:22:04;12.00;99.90
9215;DHT22;4642;51.364;6.788;2022-10-16T06:24:30;12.00;99.90
9215;DHT22;4642;51.364;6.788;2022-10-16T06:26:55;12.00;99.90
9215;DHT22;4642;51.364;6.788;2022-10-16T06:29:21;12.00;99.90
9215;DHT22;4642;51.364;6.788;2022-10-16T06:31:46;12.00;99.90
9215;DHT22;4642;51.364;6.788;2022-10-16T06:34:12;12.00;99.90
9215;DHT22;4642;51.364;6.788;2022-10-16T06:36:38;12.00;99.90
9215;DHT22;4642;51.364;6.788;2022-10-16T06:39:05;12.10;99.90
9215;DHT22;4642;51.364;6.788;2022-10-16T06:41:32;12.00;99.90
9215;DHT22;4642;51.364;6.788;2022-10-16T06:43:58;12.00;99.90
9215;DHT22;4642;51.364;6.788;2022-10-16T06:46:25;12.10;99.90
9215;DHT22;4642;51.364;6.788;2022-10-16T06:48:51;12.10;99.90
9215;DHT22;4642;51.364;6.788;2022-10-16T06:51:18;12.20;99.90
9215;DHT22;4642;51.364;6.788;2022-10-16T06:53:49;12.20;99.90
9215;DHT22;4642;51.364;6.788;2022-10-16T06:56:24;12.20;99.90
9215;DHT22;4642;51.364;6.788;2022-10-16T06:58:50;12.20;99.90
9215;DHT22;4642;51.364;6.788;2022-10-16T07:01:18;12.20;99.90
9215;DHT22;4642;51.364;6.788;2022-10-16T07:03:45;12.20;99.90
9215;DHT22;4642;51.364;6.788;2022-10-16T07:06:16;12.20;99.90
9215;DHT22;4642;51.364;6.788;2022-10-16T07:08:44;12.20;99.90
9215;DHT22;4642;51.364;6.788;2022-10-16T07:11:12;12.20;99.90
9215;DHT22;4642;51.364;6.788;2022-10-16T07:13:40;12.20;99.90
9215;DHT22;4642;51.364;6.788;2022-10-16T07:16:10;12.20;99.90
9215;DHT22;4642;51.364;6.788;2022-10-16T07:18:36;12.20;99.90
9215;DHT22;4642;51.364;6.788;2022-10-16T07:21:09;12.20;99.90
9215;DHT22;4642;51.364;6.788;2022-10-16T07:23:35;12.30;99.90
9215;DHT22;4642;51.364;6.788;2022-10-16T07:26:01;12.50;99.90
9215;DHT22;4642;51.364;6.788;2022-10-16T07:28:27;12.40;99.90
9215;DHT22;4642;51.364;6.788;2022-10-16T07:30:53;12.40;99.90
9215;DHT22;4642;51.364;6.788;2022-10-16T07:33:19;12.40;99.90
9215;DHT22;4642;51.364;6.788;2022-10-16T07:35:49;12.40;99.90
9215;DHT22;4642;51.364;6.788;2022-10-16T07:38:15;12.40;99.90
9215;DHT22;4642;51.364;6.788;2022-10-16T07:40:40;12.50;99.90
9215;DHT22;4642;51.364;6.788;2022-10-16T07:43:06;12.50;99.90
9215;DHT22;4642;51.364;6.788;2022-10-16T07:45:31;12.60;99.90
9215;DHT22;4642;51.364;6.788;2022-10-16T07:47:57;12.70;99.90
9215;DHT22;4642;51.364;6.788;2022-10-16T07:50:22;12.70;99.90
9215;DHT22;4642;51.364;6.788;2022-10-16T07:52:48;12.80;99.90
9215;DHT22;4642;51.364;6.788;2022-10-16T07:55:13;12.90;99.90
9215;DHT22;4642;51.364;6.788;2022-10-16T07:57:39;12.90;99.90
9215;DHT22;4642;51.364;6.788;2022-10-16T08:00:05;13.00;99.90
9215;DHT22;4642;51.364;6.788;2022-10-16T08:02:31;13.10;99.90
9215;DHT22;4642;51.364;6.788;2022-10-16T08:04:57;13.20;99.90
9215;DHT22;4642;51.364;6.788;2022-10-16T08:07:22;13.20;99.90
9215;DHT22;4642;51.364;6.788;2022-10-16T08:09:51;13.30;99.90
9215;DHT22;4642;51.364;6.788;2022-10-16T08:12:17;13.40;99.90
9215;DHT22;4642;51.364;6.788;2022-10-16T08:14:42;13.40;99.90
9215;DHT22;4642;51.364;6.788;2022-10-16T08:17:08;13.50;99.90
9215;DHT22;4642;51.364;6.788;2022-10-16T08:19:33;13.60;99.90
9215;DHT22;4642;51.364;6.788;2022-10-16T08:22:00;13.70;99.90
9215;DHT22;4642;51.364;6.788;2022-10-16T08:24:26;13.80;99.90
9215;DHT22;4642;51.364;6.788;2022-10-16T08:26:53;13.90;99.90
9215;DHT22;4642;51.364;6.788;2022-10-16T08:29:19;14.00;99.90
9215;DHT22;4642;51.364;6.788;2022-10-16T08:31:45;14.00;99.90
9215;DHT22;4642;51.364;6.788;2022-10-16T08:34:10;14.10;99.90
9215;DHT22;4642;51.364;6.788;2022-10-16T08:36:36;14.20;99.90
9215;DHT22;4642;51.364;6.788;2022-10-16T08:39:01;14.20;99.90
9215;DHT22;4642;51.364;6.788;2022-10-16T08:49:29;14.60;99.90
9215;DHT22;4642;51.364;6.788;2022-10-16T08:51:55;14.70;99.90
9215;DHT22;4642;51.364;6.788;2022-10-16T08:54:34;14.90;99.90
9215;DHT22;4642;51.364;6.788;2022-10-16T08:57:20;14.90;99.90
9215;DHT22;4642;51.364;6.788;2022-10-16T08:59:46;14.90;99.90
9215;DHT22;4642;51.364;6.788;2022-10-16T09:02:49;15.00;99.90
9215;DHT22;4642;51.364;6.788;2022-10-16T09:05:49;15.00;99.90
9215;DHT22;4642;51.364;6.788;2022-10-16T09:08:32;15.10;99.90
9215;DHT22;4642;51.364;6.788;2022-10-16T09:11:36;15.20;99.90
9215;DHT22;4642;51.364;6.788;2022-10-16T09:16:59;15.30;99.90
9215;DHT22;4642;51.364;6.788;2022-10-16T09:19:40;15.30;99.90
9215;DHT22;4642;51.364;6.788;2022-10-16T09:22:15;15.50;99.90
9215;DHT22;4642;51.364;6.788;2022-10-16T09:24:40;15.50;99.90
9215;DHT22;4642;51.364;6.788;2022-10-16T09:27:13;15.70;99.90
9215;DHT22;4642;51.364;6.788;2022-10-16T09:29:39;15.70;99.90
9215;DHT22;4642;51.364;6.788;2022-10-16T09:32:18;15.80;99.90
9215;DHT22;4642;51.364;6.788;2022-10-16T09:34:52;15.90;99.90
9215;DHT22;4642;51.364;6.788;2022-10-16T09:37:21;16.00;99.90
9215;DHT22;4642;51.364;6.788;2022-10-16T09:39:50;16.00;99.90
9215;DHT22;4642;51.364;6.788;2022-10-16T09:42:17;16.10;99.90
9215;DHT22;4642;51.364;6.788;2022-10-16T09:44:47;16.20;99.90
9215;DHT22;4642;51.364;6.788;2022-10-16T09:47:25;16.30;99.90
9215;DHT22;4642;51.364;6.788;2022-10-16T09:49:56;16.30;99.90
9215;DHT22;4642;51.364;6.788;2022-10-16T09:52:24;16.40;99.90
9215;DHT22;4642;51.364;6.788;2022-10-16T09:55:12;16.40;99.90
9215;DHT22;4642;51.364;6.788;2022-10-16T09:57:49;16.50;99.90
9215;DHT22;4642;51.364;6.788;2022-10-16T10:00:17;16.60;99.90
9215;DHT22;4642;51.364;6.788;2022-10-16T10:02:43;16.50;99.90
9215;DHT22;4642;51.364;6.788;2022-10-16T10:05:27;16.60;99.90
9215;DHT22;4642;51.364;6.788;2022-10-16T10:07:56;16.70;99.90
9215;DHT22;4642;51.364;6.788;2022-10-16T10:10:28;16.90;99.90
9215;DHT22;4642;51.364;6.788;2022-10-16T10:12:55;16.70;99.90
9215;DHT22;4642;51.364;6.788;2022-10-16T10:15:21;16.70;99.90
9215;DHT22;4642;51.364;6.788;2022-10-16T10:17:51;16.80;99.90
9215;DHT22;4642;51.364;6.788;2022-10-16T10:20:31;16.90;99.90
9215;DHT22;4642;51.364;6.788;2022-10-16T10:23:01;17.00;99.90
9215;DHT22;4642;51.364;6.788;2022-10-16T10:26:15;17.00;99.90
9215;DHT22;4642;51.364;6.788;2022-10-16T10:28:23;17.00;99.90
9215;DHT22;4642;51.364;6.788;2022-10-16T10:31:08;17.20;99.90
9215;DHT22;4642;51.364;6.788;2022-10-16T10:34:04;17.20;99.90
9215;DHT22;4642;51.364;6.788;2022-10-16T10:36:41;17.20;99.90
9215;DHT22;4642;51.364;6.788;2022-10-16T10:39:17;17.20;99.90
9215;DHT22;4642;51.364;6.788;2022-10-16T10:42:08;17.10;99.90
9215;DHT22;4642;51.364;6.788;2022-10-16T10:45:21;17.10;99.90
9215;DHT22;4642;51.364;6.788;2022-10-16T10:50:52;17.20;99.90
9215;DHT22;4642;51.364;6.788;2022-10-16T10:53:49;17.30;99.90
9215;DHT22;4642;51.364;6.788;2022-10-16T10:56:45;17.40;99.90
9215;DHT22;4642;51.364;6.788;2022-10-16T11:02:18;17.60;99.90
9215;DHT22;4642;51.364;6.788;2022-10-16T11:05:16;17.70;99.90
9215;DHT22;4642;51.364;6.788;2022-10-16T11:07:49;17.80;99.90
9215;DHT22;4642;51.364;6.788;2022-10-16T11:10:21;17.70;99.90
9215;DHT22;4642;51.364;6.788;2022-10-16T11:12:52;17.70;99.90
9215;DHT22;4642;51.364;6.788;2022-10-16T11:15:35;17.80;99.90
9215;DHT22;4642;51.364;6.788;2022-10-16T11:18:15;17.80;99.90
9215;DHT22;4642;51.364;6.788;2022-10-16T11:21:04;17.90;99.90
9215;DHT22;4642;51.364;6.788;2022-10-16T11:26:28;17.80;99.90
9215;DHT22;4642;51.364;6.788;2022-10-16T11:28:56;17.90;99.90
9215;DHT22;4642;51.364;6.788;2022-10-16T11:39:18;17.90;99.90
9215;DHT22;4642;51.364;6.788;2022-10-16T11:49:33;17.90;99.90
9215;DHT22;4642;51.364;6.788;2022-10-16T11:52:10;17.90;99.90
9215;DHT22;4642;51.364;6.788;2022-10-16T11:55:13;18.00;99.90
9215;DHT22;4642;51.364;6.788;2022-10-16T11:57:45;18.10;99.90
9215;DHT22;4642;51.364;6.788;2022-10-16T12:00:20;18.10;99.90
9215;DHT22;4642;51.364;6.788;2022-10-16T12:02:52;18.20;99.90
9215;DHT22;4642;51.364;6.788;2022-10-16T12:05:27;18.20;99.90
9215;DHT22;4642;51.364;6.788;2022-10-16T12:10:29;18.20;99.90
9215;DHT22;4642;51.364;6.788;2022-10-16T12:12:57;18.30;99.90
9215;DHT22;4642;51.364;6.788;2022-10-16T12:15:32;18.20;99.90
9215;DHT22;4642;51.364;6.788;2022-10-16T12:17:58;18.30;99.90
9215;DHT22;4642;51.364;6.788;2022-10-16T12:20:32;18.40;99.90
9215;DHT22;4642;51.364;6.788;2022-10-16T12:23:03;18.40;1.00
9215;DHT22;4642;51.364;6.788;2022-10-16T12:25:30;18.40;99.90
9215;DHT22;4642;51.364;6.788;2022-10-16T12:28:17;18.40;1.00
9215;DHT22;4642;51.364;6.788;2022-10-16T12:30:52;18.40;1.00
9215;DHT22;4642;51.364;6.788;2022-10-16T12:33:27;18.50;1.00
9215;DHT22;4642;51.364;6.788;2022-10-16T12:35:53;18.40;99.90
9215;DHT22;4642;51.364;6.788;2022-10-16T12:38:38;18.50;99.90
9215;DHT22;4642;51.364;6.788;2022-10-16T12:41:10;18.50;1.00
9215;DHT22;4642;51.364;6.788;2022-10-16T12:43:45;18.60;99.90
9215;DHT22;4642;51.364;6.788;2022-10-16T12:48:39;18.50;26.10
9215;DHT22;4642;51.364;6.788;2022-10-16T12:51:11;18.50;99.90
9215;DHT22;4642;51.364;6.788;2022-10-16T12:53:37;18.50;66.50
9215;DHT22;4642;51.364;6.788;2022-10-16T13:01:38;18.70;1.00
9215;DHT22;4642;51.364;6.788;2022-10-16T13:07:06;18.70;99.90
9215;DHT22;4642;51.364;6.788;2022-10-16T13:12:40;18.60;40.90
9215;DHT22;4642;51.364;6.788;2022-10-16T13:15:25;18.50;99.90
9215;DHT22;4642;51.364;6.788;2022-10-16T13:21:00;18.40;1.00
9215;DHT22;4642;51.364;6.788;2022-10-16T13:23:38;18.30;1.00
9215;DHT22;4642;51.364;6.788;2022-10-16T13:26:29;18.30;1.00
9215;DHT22;4642;51.364;6.788;2022-10-16T13:29:00;18.20;1.00
9215;DHT22;4642;51.364;6.788;2022-10-16T13:31:26;18.20;99.90
9215;DHT22;4642;51.364;6.788;2022-10-16T13:33:58;18.20;1.00
9215;DHT22;4642;51.364;6.788;2022-10-16T13:36:27;18.20;1.00
9215;DHT22;4642;51.364;6.788;2022-10-16T13:39:14;18.20;99.90
9215;DHT22;4642;51.364;6.788;2022-10-16T13:41:42;18.20;1.00
9215;DHT22;4642;51.364;6.788;2022-10-16T13:44:15;18.30;99.90
9215;DHT22;4642;51.364;6.788;2022-10-16T13:46:43;18.30;99.90
9215;DHT22;4642;51.364;6.788;2022-10-16T13:49:14;18.30;99.90
9215;DHT22;4642;51.364;6.788;2022-10-16T13:51:40;18.30;84.50
9215;DHT22;4642;51.364;6.788;2022-10-16T13:54:09;18.40;1.00
9215;DHT22;4642;51.364;6.788;2022-10-16T13:56:35;18.40;1.00
9215;DHT22;4642;51.364;6.788;2022-10-16T13:59:05;18.50;99.90
9215;DHT22;4642;51.364;6.788;2022-10-16T14:01:34;18.50;1.00
9215;DHT22;4642;51.364;6.788;2022-10-16T14:04:19;18.50;1.00
9215;DHT22;4642;51.364;6.788;2022-10-16T14:06:46;18.60;99.90
9215;DHT22;4642;51.364;6.788;2022-10-16T14:09:26;18.60;1.00
9215;DHT22;4642;51.364;6.788;2022-10-16T14:12:01;18.80;1.00
9215;DHT22;4642;51.364;6.788;2022-10-16T14:14:40;18.80;1.00
9215;DHT22;4642;51.364;6.788;2022-10-16T14:17:06;18.80;99.90
9215;DHT22;4642;51.364;6.788;2022-10-16T14:19:38;18.70;1.00
9215;DHT22;4642;51.364;6.788;2022-10-16T14:25:00;18.60;99.90
9215;DHT22;4642;51.364;6.788;2022-10-16T14:27:33;18.50;1.00
9215;DHT22;4642;51.364;6.788;2022-10-16T14:32:34;18.40;1.00
9215;DHT22;4642;51.364;6.788;2022-10-16T14:34:59;18.30;99.90
9215;DHT22;4642;51.364;6.788;2022-10-16T14:37:27;18.20;1.00
9215;DHT22;4642;51.364;6.788;2022-10-16T14:39:54;18.30;99.90
9215;DHT22;4642;51.364;6.788;2022-10-16T14:42:23;18.30;99.90
9215;DHT22;4642;51.364;6.788;2022-10-16T14:44:51;18.30;99.90
9215;DHT22;4642;51.364;6.788;2022-10-16T14:47:23;18.30;99.90
9215;DHT22;4642;51.364;6.788;2022-10-16T14:49:52;18.20;99.90
9215;DHT22;4642;51.364;6.788;2022-10-16T14:52:20;18.20;99.90
9215;DHT22;4642;51.364;6.788;2022-10-16T14:54:48;18.10;99.90
9215;DHT22;4642;51.364;6.788;2022-10-16T14:57:24;18.20;91.30
9215;DHT22;4642;51.364;6.788;2022-10-16T14:59:52;18.10;99.90
9215;DHT22;4642;51.364;6.788;2022-10-16T15:04:47;18.00;1.00
9215;DHT22;4642;51.364;6.788;2022-10-16T15:07:12;18.00;1.00
9215;DHT22;4642;51.364;6.788;2022-10-16T15:09:38;17.90;45.00
9215;DHT22;4642;51.364;6.788;2022-10-16T15:12:03;17.80;99.90
9215;DHT22;4642;51.364;6.788;2022-10-16T15:14:29;17.70;99.90
9215;DHT22;4642;51.364;6.788;2022-10-16T15:16:54;17.60;99.90
9215;DHT22;4642;51.364;6.788;2022-10-16T15:19:20;17.60;99.90
9215;DHT22;4642;51.364;6.788;2022-10-16T15:21:45;17.50;99.90
9215;DHT22;4642;51.364;6.788;2022-10-16T15:24:13;17.50;99.90
9215;DHT22;4642;51.364;6.788;2022-10-16T15:26:39;17.40;99.90
9215;DHT22;4642;51.364;6.788;2022-10-16T15:29:05;17.30;99.90
9215;DHT22;4642;51.364;6.788;2022-10-16T15:31:31;17.30;99.90
9215;DHT22;4642;51.364;6.788;2022-10-16T15:33:57;17.20;99.90
9215;DHT22;4642;51.364;6.788;2022-10-16T15:36:31;17.10;99.90
9215;DHT22;4642;51.364;6.788;2022-10-16T15:38:59;17.10;99.90
9215;DHT22;4642;51.364;6.788;2022-10-16T15:41:24;17.00;99.90
9215;DHT22;4642;51.364;6.788;2022-10-16T15:43:50;16.90;99.90
9215;DHT22;4642;51.364;6.788;2022-10-16T15:46:19;16.90;99.90
9215;DHT22;4642;51.364;6.788;2022-10-16T15:48:45;16.80;99.90
9215;DHT22;4642;51.364;6.788;2022-10-16T15:51:10;16.70;99.90
9215;DHT22;4642;51.364;6.788;2022-10-16T15:53:36;16.80;99.90
9215;DHT22;4642;51.364;6.788;2022-10-16T15:56:03;16.70;99.90
9215;DHT22;4642;51.364;6.788;2022-10-16T15:58:29;16.70;99.90
9215;DHT22;4642;51.364;6.788;2022-10-16T16:00:59;16.60;99.90
9215;DHT22;4642;51.364;6.788;2022-10-16T16:03:29;16.60;99.90
9215;DHT22;4642;51.364;6.788;2022-10-16T16:05:55;16.60;99.90
9215;DHT22;4642;51.364;6.788;2022-10-16T16:08:21;16.60;99.90
9215;DHT22;4642;51.364;6.788;2022-10-16T16:11:00;16.50;99.90
9215;DHT22;4642;51.364;6.788;2022-10-16T16:13:26;16.50;99.90
9215;DHT22;4642;51.364;6.788;2022-10-16T16:15:52;16.50;99.90
9215;DHT22;4642;51.364;6.788;2022-10-16T16:18:17;16.40;99.90
9215;DHT22;4642;51.364;6.788;2022-10-16T16:20:43;16.40;99.90
9215;DHT22;4642;51.364;6.788;2022-10-16T16:23:09;16.40;99.90
9215;DHT22;4642;51.364;6.788;2022-10-16T16:25:34;16.30;99.90
9215;DHT22;4642;51.364;6.788;2022-10-16T16:28:00;16.20;99.90
9215;DHT22;4642;51.364;6.788;2022-10-16T16:30:26;16.20;99.90
9215;DHT22;4642;51.364;6.788;2022-10-16T16:32:51;16.20;99.90
9215;DHT22;4642;51.364;6.788;2022-10-16T16:35:17;16.10;99.90
9215;DHT22;4642;51.364;6.788;2022-10-16T16:37:42;16.20;99.90
9215;DHT22;4642;51.364;6.788;2022-10-16T16:40:08;16.00;99.90
9215;DHT22;4642;51.364;6.788;2022-10-16T16:42:33;16.00;99.90
9215;DHT22;4642;51.364;6.788;2022-10-16T16:44:59;16.00;99.90
9215;DHT22;4642;51.364;6.788;2022-10-16T16:47:25;15.90;99.90
9215;DHT22;4642;51.364;6.788;2022-10-16T16:49:51;15.90;99.90
9215;DHT22;4642;51.364;6.788;2022-10-16T16:52:16;15.80;99.90
9215;DHT22;4642;51.364;6.788;2022-10-16T16:54:42;15.70;99.90
9215;DHT22;4642;51.364;6.788;2022-10-16T16:57:10;15.70;99.90
9215;DHT22;4642;51.364;6.788;2022-10-16T16:59:35;15.70;99.90
9215;DHT22;4642;51.364;6.788;2022-10-16T17:02:01;15.70;99.90
9215;DHT22;4642;51.364;6.788;2022-10-16T17:04:28;15.60;99.90
9215;DHT22;4642;51.364;6.788;2022-10-16T17:06:54;15.60;99.90
9215;DHT22;4642;51.364;6.788;2022-10-16T17:09:20;15.60;99.90
9215;DHT22;4642;51.364;6.788;2022-10-16T17:11:46;15.50;99.90
9215;DHT22;4642;51.364;6.788;2022-10-16T17:14:14;15.50;99.90
9215;DHT22;4642;51.364;6.788;2022-10-16T17:16:40;15.50;99.90
9215;DHT22;4642;51.364;6.788;2022-10-16T17:19:11;15.50;99.90
9215;DHT22;4642;51.364;6.788;2022-10-16T17:21:37;15.50;99.90